Time;durP1;ratioP1;P1;durP2;ratioP2;P2;SDS_P1;SDS_P2;PMS_P1;PMS_P2;Temp;Humidity;BMP_temperature;BMP_pressure;BME280_temperature;BME280_humidity;BME280_pressure;Samples;Min_cycle;Max_cycle;Signal;HPM_P1;HPM_P2
2022/11/24 00:01:07;;;;;;;41.68;24.52;;;;;;;-1.15;98.39;98993.29;1652214;84;21145;-77
2022/11/24 00:03:37;;;;;;;46.33;23.40;;;;;;;-1.14;98.35;98991.13;1612295;85;21203;-78
2022/11/24 00:06:08;;;;;;;46.13;26.00;;;;;;;-1.16;98.31;98994.58;1632785;85;21571;-78
2022/11/24 00:08:36;;;;;;;49.10;27.52;;;;;;;-1.19;98.36;98989.05;1634859;86;21030;-78
2022/11/24 00:11:10;;;;;;;51.70;25.12;;;;;;;-1.19;98.49;98989.05;1628345;86;21590;-78
2022/11/24 00:13:38;;;;;;;43.13;23.92;;;;;;;-1.19;98.52;98990.33;1616987;86;21204;-78
2022/11/24 00:16:13;;;;;;;45.90;25.50;;;;;;;-1.19;98.58;98986.48;1635050;85;21110;-78
2022/11/24 00:18:42;;;;;;;47.90;25.77;;;;;;;-1.20;98.53;98987.37;1650799;84;22097;-77
2022/11/24 00:21:10;;;;;;;48.50;25.48;;;;;;;-1.23;98.68;98986.13;1654248;84;21749;-78
2022/11/24 00:23:37;;;;;;;50.17;26.85;;;;;;;-1.21;98.67;98993.33;1615971;86;21078;-77
2022/11/24 00:26:09;;;;;;;48.00;26.50;;;;;;;-1.19;98.68;98995.45;1641148;86;21149;-77
2022/11/24 00:28:37;;;;;;;44.03;24.10;;;;;;;-1.15;98.68;98995.85;1625903;86;21095;-77
2022/11/24 00:31:08;;;;;;;48.68;26.52;;;;;;;-1.10;98.78;98992.38;1651042;85;20998;-77
2022/11/24 00:33:35;;;;;;;51.50;27.02;;;;;;;-1.07;98.68;98991.05;1662064;85;21700;-77
2022/11/24 00:36:02;;;;;;;43.33;24.37;;;;;;;-1.06;98.62;99001.73;1622953;86;21077;-78
2022/11/24 00:38:29;;;;;;;43.52;26.60;;;;;;;-1.01;98.53;98997.38;1616176;86;21247;-77
2022/11/24 00:40:57;;;;;;;42.98;24.98;;;;;;;-0.98;98.38;99011.02;1636478;85;21153;-77
2022/11/24 00:43:24;;;;;;;43.68;24.07;;;;;;;-0.98;98.24;99010.15;1632560;86;21077;-77
2022/11/24 00:45:51;;;;;;;39.45;23.32;;;;;;;-0.98;98.23;99008.47;1637438;86;21059;-77
2022/11/24 00:48:18;;;;;;;42.38;23.92;;;;;;;-0.98;98.17;99008.88;1640399;85;21656;-77
2022/11/24 00:50:59;;;;;;;36.45;21.77;;;;;;;-0.97;98.16;99002.46;1634151;85;20975;-77
2022/11/24 00:53:27;;;;;;;37.23;21.07;;;;;;;-0.95;98.14;99003.73;1620653;85;21192;-77
2022/11/24 00:55:55;;;;;;;39.95;22.55;;;;;;;-0.97;98.10;99012.70;1657128;85;21002;-77
2022/11/24 00:58:23;;;;;;;35.00;20.15;;;;;;;-0.88;97.72;99016.03;1618703;85;21025;-76
2022/11/24 01:00:51;;;;;;;35.45;19.75;;;;;;;-0.99;97.68;99012.31;1633641;85;21093;-77
2022/11/24 01:03:20;;;;;;;35.92;19.27;;;;;;;-1.02;97.94;99020.03;1625405;86;21149;-77
2022/11/24 01:05:47;;;;;;;36.85;20.25;;;;;;;-0.95;97.75;99019.11;1625429;86;21534;-77
2022/11/24 01:08:14;;;;;;;36.42;21.27;;;;;;;-0.99;97.73;99028.97;1644067;85;21278;-77
2022/11/24 01:10:41;;;;;;;45.10;23.02;;;;;;;-0.94;97.72;99026.77;1637178;86;21023;-78
2022/11/24 01:13:08;;;;;;;42.45;22.65;;;;;;;-0.92;97.79;99021.20;1632300;85;21193;-77
2022/11/24 01:15:36;;;;;;;33.73;20.68;;;;;;;-0.89;97.76;99013.91;1632289;86;21127;-77
2022/11/24 01:18:03;;;;;;;35.23;20.65;;;;;;;-0.81;97.77;99009.94;1659530;84;22135;-77
2022/11/24 01:20:32;;;;;;;31.02;19.07;;;;;;;-0.80;97.49;99012.50;1643878;85;21137;-77
2022/11/24 01:22:59;;;;;;;36.75;22.32;;;;;;;-0.89;97.63;99017.75;1659942;84;21105;-78
2022/11/24 01:25:25;;;;;;;39.38;23.42;;;;;;;-0.92;97.83;99022.48;1660655;84;21042;-78
2022/11/24 01:27:52;;;;;;;34.60;21.67;;;;;;;-0.92;97.84;99020.35;1661847;84;20955;-78
2022/11/24 01:30:20;;;;;;;38.20;22.13;;;;;;;-0.86;97.70;99017.70;1660959;85;21906;-78
2022/11/24 01:32:47;;;;;;;38.40;21.17;;;;;;;-0.95;97.76;99023.80;1655364;84;21721;-77
2022/11/24 01:35:14;;;;;;;40.60;22.55;;;;;;;-0.96;97.78;99028.92;1629321;86;21712;-77
2022/11/24 01:37:41;;;;;;;33.30;20.97;;;;;;;-0.95;97.68;99028.08;1636881;85;21271;-77
2022/11/24 01:40:10;;;;;;;40.90;22.67;;;;;;;-0.93;97.65;99025.05;1614480;86;21174;-77
2022/11/24 01:42:58;;;;;;;36.33;21.93;;;;;;;-0.98;97.82;99026.40;1622224;86;21796;-77
2022/11/24 01:47:41;;;;;;;42.17;24.12;;;;;;;-0.89;97.63;99024.16;1814398;77;22313;-77
2022/11/24 01:50:13;;;;;;;40.37;22.77;;;;;;;-1.04;97.79;99024.32;1824099;78;20977;-77
2022/11/24 01:52:48;;;;;;;43.33;23.92;;;;;;;-1.06;97.98;99022.23;1825404;78;21119;-77
2022/11/24 01:55:20;;;;;;;39.80;23.98;;;;;;;-1.08;98.08;99026.52;1812684;77;21483;-78
2022/11/24 01:57:55;;;;;;;40.25;22.20;;;;;;;-1.08;98.00;99023.95;1816892;78;20977;-78
2022/11/24 02:00:22;;;;;;;41.42;22.62;;;;;;;-1.02;97.85;99026.44;1815057;77;21028;-77
2022/11/24 02:02:49;;;;;;;42.30;22.30;;;;;;;-1.04;97.66;99023.05;1824330;78;21004;-78
2022/11/24 02:05:24;;;;;;;48.90;25.45;;;;;;;-1.08;97.59;99021.39;1822917;78;21908;-77
2022/11/24 02:07:53;;;;;;;48.38;25.82;;;;;;;-1.19;97.89;99016.39;1833384;77;20899;-78
2022/11/24 02:10:22;;;;;;;45.45;24.47;;;;;;;-1.23;97.99;99023.27;1822073;77;23464;-77
2022/11/24 02:12:52;;;;;;;47.85;26.70;;;;;;;-1.26;98.11;99023.30;1821834;78;21024;-77
2022/11/24 02:15:20;;;;;;;43.52;25.02;;;;;;;-1.26;98.22;99024.58;1759512;81;21627;-77
2022/11/24 02:17:47;;;;;;;46.50;24.77;;;;;;;-1.23;98.28;99028.39;1762098;81;22207;-77
2022/11/24 02:20:16;;;;;;;48.55;25.55;;;;;;;-1.23;98.25;99027.11;1763046;80;21703;-78
2022/11/24 02:23:07;;;;;;;44.30;23.57;;;;;;;-1.26;98.19;99020.73;1759201;81;20960;-78
2022/11/24 02:25:50;;;;;;;44.42;25.27;;;;;;;-1.22;98.14;99019.83;1750590;80;21000;-78
2022/11/24 02:28:18;;;;;;;47.30;26.20;;;;;;;-1.24;97.97;99021.55;1782851;80;20986;-77
2022/11/24 02:30:46;;;;;;;40.80;24.67;;;;;;;-1.26;97.94;99020.73;1783190;79;21071;-77
2022/11/24 02:33:13;;;;;;;45.20;25.15;;;;;;;-1.29;98.04;99018.18;1780208;79;21505;-78
2022/11/24 02:35:40;;;;;;;44.80;24.45;;;;;;;-1.34;98.21;99021.25;1780564;80;28230;-78
2022/11/24 02:38:12;;;;;;;48.65;24.77;;;;;;;-1.35;98.36;99020.38;1758972;80;21118;-78
2022/11/24 02:40:44;;;;;;;47.78;25.05;;;;;;;-1.35;98.43;99015.69;1748184;81;21649;-78
2022/11/24 02:46:02;;;;;;;48.42;26.33;;;;;;;-1.29;98.19;99016.91;1772291;79;20935;-78
2022/11/24 02:48:29;;;;;;;51.25;28.12;;;;;;;-1.29;98.29;99019.46;1767625;79;21088;-78
2022/11/24 02:50:56;;;;;;;46.95;26.73;;;;;;;-1.25;98.50;99030.11;1770755;79;21020;-79
2022/11/24 02:53:23;;;;;;;49.97;27.27;;;;;;;-1.18;98.73;99026.59;1780770;80;20899;-79
2022/11/24 02:55:50;;;;;;;48.42;26.02;;;;;;;-1.13;98.62;99029.97;1776293;79;21078;-78
2022/11/24 02:58:17;;;;;;;47.58;25.75;;;;;;;-1.05;98.53;99026.48;1766935;80;20966;-78
2022/11/24 03:00:43;;;;;;;46.92;25.40;;;;;;;-0.97;98.24;99028.09;1732983;81;20997;-78
2022/11/24 03:03:10;;;;;;;50.97;26.80;;;;;;;-1.00;98.15;99027.28;1755722;79;20926;-78
2022/11/24 03:05:37;;;;;;;50.05;26.77;;;;;;;-0.99;98.32;99032.81;1755932;79;20978;-78
2022/11/24 03:08:04;;;;;;;50.10;26.68;;;;;;;-0.97;98.32;99032.37;1743530;79;21060;-78
2022/11/24 03:10:31;;;;;;;48.70;26.85;;;;;;;-0.96;98.31;99031.48;1755437;79;21052;-78
2022/11/24 03:12:57;;;;;;;50.05;26.68;;;;;;;-0.94;98.38;99033.61;1761627;80;21151;-78
2022/11/24 03:15:24;;;;;;;46.33;25.70;;;;;;;-0.91;98.37;99040.82;1755273;81;21014;-79
2022/11/24 03:17:55;;;;;;;52.83;28.38;;;;;;;-0.88;98.43;99041.22;1765447;79;21273;-78
2022/11/24 03:20:43;;;;;;;47.78;25.85;;;;;;;-0.85;98.36;99048.02;1775702;79;21034;-78
2022/11/24 03:23:10;;;;;;;41.13;25.55;;;;;;;-0.83;98.38;99042.02;1692254;82;21624;-77
2022/11/24 03:25:37;;;;;;;44.40;26.33;;;;;;;-0.79;98.36;99044.10;1704264;82;21604;-78
2022/11/24 03:28:04;;;;;;;53.13;27.30;;;;;;;-0.79;98.26;99049.23;1718593;82;20997;-79
2022/11/24 03:30:31;;;;;;;48.13;27.13;;;;;;;-0.79;98.25;99046.23;1724893;81;21028;-79
2022/11/24 03:32:58;;;;;;;52.17;29.30;;;;;;;-0.79;98.24;99050.07;1719090;82;21065;-79
2022/11/24 03:35:24;;;;;;;51.95;29.48;;;;;;;-0.79;98.20;99044.95;1715142;82;21047;-79
2022/11/24 03:37:51;;;;;;;50.23;28.42;;;;;;;-0.80;98.23;99053.52;1714157;82;20934;-78
2022/11/24 03:40:18;;;;;;;51.70;27.80;;;;;;;-0.78;98.28;99050.95;1718242;81;20973;-78
2022/11/24 03:42:45;;;;;;;49.23;27.58;;;;;;;-0.76;98.33;99055.59;1724716;82;21592;-79
2022/11/24 03:45:12;;;;;;;50.83;28.77;;;;;;;-0.74;98.38;99050.87;1714912;82;21079;-79
2022/11/24 03:47:38;;;;;;;53.60;28.73;;;;;;;-0.71;98.37;99048.27;1714670;82;21328;-79
2022/11/24 03:50:05;;;;;;;57.53;29.13;;;;;;;-0.70;98.34;99046.13;1715060;82;21006;-79
2022/11/24 03:52:32;;;;;;;57.58;30.80;;;;;;;-0.68;98.34;99048.22;1736257;81;20991;-78
2022/11/24 03:54:59;;;;;;;50.37;28.23;;;;;;;-0.63;98.43;99049.89;1705977;83;21026;-78
2022/11/24 03:57:26;;;;;;;51.98;28.15;;;;;;;-0.59;98.40;99048.98;1700247;83;21118;-79
2022/11/24 03:59:53;;;;;;;59.97;31.00;;;;;;;-0.59;98.33;99048.98;1711937;82;20932;-79
2022/11/24 04:02:19;;;;;;;59.48;31.10;;;;;;;-0.57;98.33;99049.38;1714587;82;21065;-79
2022/11/24 04:04:54;;;;;;;60.17;30.67;;;;;;;-0.56;98.22;99042.52;1714968;82;21007;-79
2022/11/24 04:07:21;;;;;;;58.92;31.37;;;;;;;-0.53;98.44;99041.23;1713139;82;21565;-78
2022/11/24 04:09:48;;;;;;;58.85;30.32;;;;;;;-0.44;98.33;99042.81;1713598;82;21072;-79
2022/11/24 04:15:00;;;;;;;57.80;29.95;;;;;;;-0.44;98.39;99048.79;1712774;82;21565;-78
2022/11/24 04:17:48;;;;;;;57.97;31.10;;;;;;;-0.40;98.56;99047.86;1725303;81;21530;-78
2022/11/24 04:20:16;;;;;;;55.85;30.77;;;;;;;-0.45;98.80;99049.64;1716955;83;21002;-78
2022/11/24 04:22:43;;;;;;;52.40;29.42;;;;;;;-0.45;98.70;99057.33;1694500;83;21128;-78
2022/11/24 04:25:10;;;;;;;57.27;32.38;;;;;;;-0.48;98.62;99054.81;1689081;83;21025;-78
2022/11/24 04:27:37;;;;;;;52.43;29.25;;;;;;;-0.49;98.70;99058.26;1676015;84;24302;-78
2022/11/24 04:30:07;;;;;;;56.23;30.08;;;;;;;-0.42;98.73;99063.73;1700277;83;20985;-78
2022/11/24 04:32:35;;;;;;;50.10;29.25;;;;;;;-0.46;98.58;99069.75;1696308;81;21130;-78
2022/11/24 04:35:04;;;;;;;51.68;28.55;;;;;;;-0.44;98.77;99077.00;1703752;82;21129;-78
2022/11/24 04:37:31;;;;;;;52.00;30.17;;;;;;;-0.45;98.66;99080.41;1706566;83;21021;-79
2022/11/24 04:40:06;;;;;;;56.98;30.65;;;;;;;-0.47;98.54;99082.17;1754704;80;21549;-78
2022/11/24 04:42:33;;;;;;;50.63;29.32;;;;;;;-0.50;98.55;99082.22;1741437;79;21574;-78
2022/11/24 04:45:00;;;;;;;58.28;31.48;;;;;;;-0.64;98.35;99066.13;1748412;80;21510;-78
2022/11/24 04:47:27;;;;;;;56.77;30.12;;;;;;;-0.64;98.35;99066.13;1744220;80;21063;-78
2022/11/24 04:49:54;;;;;;;59.38;32.30;;;;;;;-0.57;98.47;99081.87;1734835;80;21001;-79
2022/11/24 04:52:23;;;;;;;58.20;31.80;;;;;;;-0.62;98.28;99090.05;1747050;79;21004;-78
2022/11/24 04:54:51;;;;;;;53.42;29.80;;;;;;;-0.65;98.36;99093.48;1748288;80;20945;-78
2022/11/24 04:57:20;;;;;;;;;;;;;;;-0.68;98.44;99107.19;1750774;80;20961;-78
2022/11/24 04:59:48;;;;;;;58.68;31.52;;;;;;;-0.66;98.46;99106.34;1749316;80;21086;-78
2022/11/24 05:02:15;;;;;;;57.53;28.50;;;;;;;-0.70;98.50;99114.08;1758240;80;21058;-78
2022/11/24 05:04:42;;;;;;;53.80;29.57;;;;;;;-0.70;98.52;99108.07;1751704;80;20938;-78
2022/11/24 05:07:15;;;;;;;51.95;30.37;;;;;;;-0.74;98.36;99108.55;1747580;80;20949;-78
2022/11/24 05:12:30;;;;;;;48.28;28.40;;;;;;;-0.84;98.42;99108.26;1738685;80;21024;-79
2022/11/24 05:15:00;;;;;;;55.05;31.48;;;;;;;-0.85;98.42;99106.54;1741082;80;21058;-78
2022/11/24 05:17:34;;;;;;;50.63;27.82;;;;;;;-0.93;98.33;99108.33;1737243;82;21574;-78
2022/11/24 05:20:02;;;;;;;53.73;27.35;;;;;;;-0.93;98.56;99110.89;1750481;80;20898;-78
2022/11/24 05:22:30;;;;;;;52.70;28.32;;;;;;;-0.91;98.57;99115.14;1746128;80;20981;-78
2022/11/24 05:25:19;;;;;;;46.68;26.87;;;;;;;-0.89;98.62;99117.70;1660965;85;21834;-78
2022/11/24 05:27:46;;;;;;;50.12;27.37;;;;;;;-0.83;98.80;99111.66;1694152;84;20993;-79
2022/11/24 05:30:13;;;;;;;52.25;28.10;;;;;;;-0.80;98.72;99112.47;1714668;83;21029;-78
2022/11/24 05:32:40;;;;;;;51.77;28.30;;;;;;;-0.78;98.68;99110.75;1705790;81;21000;-78
2022/11/24 05:35:08;;;;;;;51.95;28.55;;;;;;;-0.74;98.69;99107.27;1716982;81;21076;-78
2022/11/24 05:37:35;;;;;;;;;;;;;;;-0.71;98.76;99104.66;1717300;82;21103;-77
2022/11/24 05:40:03;;;;;;;53.25;28.62;;;;;;;-0.70;98.58;99101.25;1718106;82;20197;-78
2022/11/24 05:42:39;;;;;;;58.05;30.85;;;;;;;-0.73;98.40;99103.86;1716497;82;21080;-78
2022/11/24 05:45:13;;;;;;;51.20;29.25;;;;;;;-0.75;98.33;99105.58;1717998;81;21028;-79
2022/11/24 05:47:41;;;;;;;50.60;28.65;;;;;;;-0.81;98.59;99103.09;1729851;82;20933;-79
2022/11/24 05:50:11;;;;;;;51.98;28.65;;;;;;;-0.77;98.62;99107.30;1701687;82;21090;-79
2022/11/24 05:52:38;;;;;;;54.42;30.08;;;;;;;-0.78;98.57;99101.77;1713876;82;21515;-80
2022/11/24 05:55:07;;;;;;;56.15;28.98;;;;;;;-0.74;98.69;99099.58;1720323;82;20910;-79
2022/11/24 05:57:34;;;;;;;60.67;31.60;;;;;;;-0.71;98.68;99099.98;1717221;82;21111;-79
2022/11/24 06:00:03;;;;;;;55.23;30.88;;;;;;;-0.72;98.58;99101.70;1714574;82;20997;-79
2022/11/24 06:02:30;;;;;;;57.88;32.95;;;;;;;-0.70;98.62;99111.52;1710971;82;21088;-79
2022/11/24 06:04:57;;;;;;;57.23;32.63;;;;;;;-0.70;98.59;99110.23;1714236;82;21502;-80
2022/11/24 06:07:24;;;;;;;61.90;31.45;;;;;;;-0.70;98.47;99114.08;1702498;82;21080;-79
2022/11/24 06:09:51;;;;;;;58.28;31.73;;;;;;;-0.73;98.33;99115.39;1713492;81;21099;-81
2022/11/24 06:12:19;;;;;;;60.73;31.50;;;;;;;-0.79;98.26;99116.72;1714334;82;21024;-79
2022/11/24 06:14:46;;;;;;;53.02;32.50;;;;;;;-0.82;98.20;99121.03;1716166;82;20934;-79
2022/11/24 06:17:16;;;;;;;59.40;31.90;;;;;;;-0.90;98.23;99115.98;1715294;82;21028;-78
2022/11/24 06:19:46;;;;;;;63.02;33.45;;;;;;;-0.96;98.32;99119.46;1714203;82;20925;-80
2022/11/24 06:22:11;;;;;;;66.87;33.67;;;;;;;-0.99;98.42;99111.81;1708554;81;21049;-76
2022/11/24 06:24:38;;;;;;;63.50;33.60;;;;;;;-1.01;98.40;99112.69;1716181;82;21462;-78
2022/11/24 06:27:05;;;;;;;61.37;31.73;;;;;;;-1.02;98.37;99108.44;1716327;81;21137;-80
2022/11/24 06:29:34;;;;;;;59.05;33.30;;;;;;;-1.04;98.36;99128.09;1699200;83;21352;-76
2022/11/24 06:32:01;;;;;;;62.43;34.53;;;;;;;-0.99;98.30;99129.75;1701440;83;20957;-78
2022/11/24 06:34:30;;;;;;;64.00;32.83;;;;;;;-0.98;98.05;99128.91;1706985;82;20976;-77
2022/11/24 06:36:56;;;;;;;57.98;32.53;;;;;;;-0.94;98.22;99127.15;1695498;81;21086;-77
2022/11/24 06:39:23;;;;;;;69.27;35.53;;;;;;;-0.94;98.32;99129.27;1706275;82;21892;-77
2022/11/24 06:41:51;;;;;;;57.80;33.75;;;;;;;-0.88;98.39;99128.80;1708139;82;21036;-77
2022/11/24 06:44:18;;;;;;;65.45;34.90;;;;;;;-0.83;98.56;99132.17;1678388;84;21602;-76
2022/11/24 06:46:45;;;;;;;63.90;33.70;;;;;;;-0.81;98.65;99137.70;1690863;82;20969;-77
2022/11/24 06:49:14;;;;;;;61.48;33.60;;;;;;;-0.75;98.69;99140.19;1707839;82;20973;-77
2022/11/24 06:51:42;;;;;;;60.00;32.38;;;;;;;-0.62;98.75;99143.89;1698862;81;21079;-76
2022/11/24 06:54:15;;;;;;;65.15;34.75;;;;;;;-0.53;98.56;99151.50;1678758;84;21056;-77
2022/11/24 06:56:45;;;;;;;64.32;33.55;;;;;;;-0.53;98.39;99157.91;1677583;84;21025;-77
2022/11/24 06:59:19;;;;;;;67.10;34.98;;;;;;;-0.56;98.24;99158.79;1677415;84;21005;-77
2022/11/24 07:01:46;;;;;;;58.92;32.70;;;;;;;-0.59;98.50;99160.52;1678303;84;20988;-77
2022/11/24 07:04:15;;;;;;;65.70;34.83;;;;;;;-0.58;98.52;99163.52;1666408;83;21236;-78
2022/11/24 07:06:43;;;;;;;61.75;32.95;;;;;;;-0.54;98.15;99172.42;1684244;82;21016;-77
2022/11/24 07:09:12;;;;;;;64.70;32.50;;;;;;;-0.52;97.84;99162.16;1708326;82;21064;-77
2022/11/24 07:11:40;;;;;;;69.03;35.98;;;;;;;-0.53;97.45;99169.45;1706748;82;21490;-77
2022/11/24 07:14:07;;;;;;;66.45;35.48;;;;;;;-0.56;97.44;99169.45;1707687;82;21608;-76
2022/11/24 07:16:34;;;;;;;77.97;38.67;;;;;;;-0.68;97.62;99171.28;1696836;83;22291;-77
2022/11/24 07:19:01;;;;;;;92.30;40.12;;;;;;;-0.71;97.61;99181.58;1685237;83;21001;-77
2022/11/24 07:21:29;;;;;;;;;;;;;;;-0.75;97.65;99185.05;1698898;83;21170;-77
2022/11/24 07:23:58;;;;;;;73.50;36.28;;;;;;;-0.75;97.70;99194.46;1741759;80;20079;-78
2022/11/24 07:26:25;;;;;;;76.30;38.20;;;;;;;-0.78;97.60;99186.36;1736338;80;21071;-77
2022/11/24 07:28:52;;;;;;;74.12;36.40;;;;;;;-0.81;97.64;99188.96;1737594;80;21953;-76
2022/11/24 07:31:23;;;;;;;63.38;33.48;;;;;;;-0.81;97.62;99190.24;1731778;81;21051;-76
2022/11/24 07:33:52;;;;;;;61.60;32.38;;;;;;;-0.95;98.07;99192.09;1733291;79;20976;-76
2022/11/24 07:36:19;;;;;;;57.27;32.85;;;;;;;-0.94;98.21;99186.09;1701346;81;21048;-86
2022/11/24 07:38:46;;;;;;;61.00;33.70;;;;;;;-0.85;98.49;99193.69;1713123;81;21001;-81
2022/11/24 07:41:15;;;;;;;58.80;30.07;;;;;;;-0.78;98.67;99192.77;1704649;82;21037;-77
2022/11/24 07:43:42;;;;;;;52.40;29.60;;;;;;;-0.58;98.43;99187.44;1704719;82;21244;-86
2022/11/24 07:46:13;;;;;;;50.83;30.08;;;;;;;-0.43;97.85;99188.97;1709236;82;22244;-86
2022/11/24 07:48:42;;;;;;;55.38;31.95;;;;;;;-0.44;97.26;99191.13;1700988;81;21345;-85
2022/11/24 07:51:09;;;;;;;52.83;31.17;;;;;;;-0.40;97.31;99181.24;1698276;81;21064;-83
2022/11/24 07:53:37;;;;;;;54.42;31.15;;;;;;;-0.48;97.42;99174.06;1674304;84;21661;-81
2022/11/24 07:56:05;;;;;;;66.65;40.23;;;;;;;-0.52;97.60;99181.39;1670706;84;21009;-85
2022/11/24 07:58:35;;;;;;;64.30;43.28;;;;;;;-0.44;97.67;99186.45;1674727;84;21491;-84
2022/11/24 08:01:17;;;;;;;67.45;42.27;;;;;;;-0.33;97.63;99177.75;1673295;84;21131;-81
2022/11/24 08:03:45;;;;;;;67.50;38.70;;;;;;;-0.29;97.83;99176.83;1686859;83;21338;-80
2022/11/24 08:06:13;;;;;;;69.65;39.27;;;;;;;-0.18;97.89;99189.54;1673554;84;21616;-82
2022/11/24 08:08:40;;;;;;;72.65;38.53;;;;;;;-0.15;97.67;99182.23;1673761;84;20977;-84
2022/11/24 08:11:11;;;;;;;62.90;35.88;;;;;;;-0.12;97.68;99180.91;1673777;84;26572;-79
2022/11/24 08:13:38;;;;;;;74.90;37.80;;;;;;;-0.13;97.68;99192.90;1680087;84;21070;-81
2022/11/24 08:16:09;;;;;;;75.00;38.70;;;;;;;-0.20;98.08;99192.55;1703142;82;20985;-81
2022/11/24 08:18:37;;;;;;;70.17;39.15;;;;;;;-0.21;97.75;99189.58;1699817;82;21164;-84
2022/11/24 08:21:05;;;;;;;74.85;40.92;;;;;;;-0.12;97.62;99191.18;1679437;83;21021;-81
2022/11/24 08:23:34;;;;;;;66.80;39.85;;;;;;;-0.23;98.14;99188.30;1687090;83;21044;-81
2022/11/24 08:26:12;;;;;;;70.00;43.50;;;;;;;-0.09;97.93;99186.84;1673774;84;21050;-81
2022/11/24 08:28:40;;;;;;;65.35;39.78;;;;;;;0.05;97.58;99184.10;1705982;81;21079;-81
2022/11/24 08:31:10;;;;;;;69.42;37.85;;;;;;;0.06;97.46;99178.13;1769034;78;21105;-80
2022/11/24 08:33:37;;;;;;;62.95;36.03;;;;;;;0.07;97.46;99182.81;1764422;80;20941;-83
2022/11/24 08:36:08;;;;;;;65.45;37.67;;;;;;;0.12;97.33;99177.19;1764784;80;21041;-89
2022/11/24 08:38:35;;;;;;;64.60;36.68;;;;;;;0.13;97.10;99173.30;1763221;79;21107;-86
2022/11/24 08:41:06;;;;;;;68.07;38.83;;;;;;;0.12;97.20;99175.47;1707299;83;20973;-84
2022/11/24 08:43:34;;;;;;;72.50;41.40;;;;;;;0.19;97.34;99174.49;1709795;82;21103;-84
2022/11/24 08:46:08;;;;;;;70.40;42.00;;;;;;;0.23;97.30;99174.48;1703739;82;21020;-84
2022/11/24 08:48:36;;;;;;;75.78;43.80;;;;;;;0.28;97.24;99185.50;1710660;82;21012;-84
2022/11/24 08:51:07;;;;;;;;;;;;;;;0.25;97.12;99195.83;1732357;81;20996;-86
2022/11/24 08:53:34;;;;;;;75.72;40.40;;;;;;;0.31;97.13;99195.73;1723500;81;20321;-84
2022/11/24 08:56:01;;;;;;;74.20;41.67;;;;;;;0.26;96.93;99206.53;1722548;81;21170;-85
2022/11/24 08:58:29;;;;;;;71.75;44.85;;;;;;;0.26;97.13;99206.53;1727161;81;24369;-84
2022/11/24 09:01:10;;;;;;;72.27;40.25;;;;;;;0.24;96.99;99215.96;1718602;81;21019;-80
2022/11/24 09:03:41;;;;;;;67.05;39.03;;;;;;;0.28;97.24;99220.17;1699239;81;20982;-78
2022/11/24 09:06:11;;;;;;;65.32;38.25;;;;;;;0.35;97.34;99223.09;1719126;81;20921;-78
2022/11/24 09:08:44;;;;;;;73.80;38.90;;;;;;;0.52;97.14;99226.25;1722885;81;21557;-79
2022/11/24 09:11:15;;;;;;;64.72;37.25;;;;;;;0.53;97.19;99220.23;1729750;81;21100;-82
2022/11/24 09:13:42;;;;;;;68.10;37.98;;;;;;;0.66;97.07;99219.19;1728809;81;21009;-81
2022/11/24 09:16:15;;;;;;;68.97;39.55;;;;;;;0.71;96.46;99218.28;1729535;81;21076;-82
2022/11/24 09:18:42;;;;;;;73.87;41.50;;;;;;;0.69;96.27;99217.45;1729256;81;21010;-86
2022/11/24 09:21:16;;;;;;;75.60;42.78;;;;;;;0.63;96.44;99226.95;1724031;82;21073;-85
2022/11/24 09:24:10;;;;;;;78.40;41.23;;;;;;;0.59;96.14;99220.17;1725317;81;21076;-78
2022/11/24 09:26:39;;;;;;;74.30;39.65;;;;;;;0.47;96.15;99215.19;1722193;81;21061;-77
2022/11/24 09:29:09;;;;;;;62.13;35.15;;;;;;;0.48;96.30;99211.77;1716459;82;20948;-78
2022/11/24 09:31:38;;;;;;;62.15;35.25;;;;;;;0.44;96.42;99219.94;1720479;81;21067;-79
2022/11/24 09:34:08;;;;;;;62.45;36.28;;;;;;;0.59;96.38;99218.05;1722953;81;21979;-79
2022/11/24 09:36:35;;;;;;;68.22;38.35;;;;;;;0.57;96.49;99216.77;1712871;81;21034;-78
2022/11/24 09:39:02;;;;;;;64.50;36.53;;;;;;;0.60;96.50;99224.42;1715795;83;20900;-85
2022/11/24 09:41:50;;;;;;;67.08;39.10;;;;;;;0.69;96.12;99220.02;1718013;81;21238;-83
2022/11/24 09:44:54;;;;;;;65.28;37.50;;;;;;;0.53;95.58;99225.38;1660347;84;21705;-81
2022/11/24 09:47:59;;;;;;;66.70;37.98;;;;;;;0.36;96.13;99224.77;1680789;84;21105;-85
2022/11/24 09:50:36;;;;;;;64.50;37.58;;;;;;;0.23;96.73;99223.27;1677557;83;21351;-82
2022/11/24 09:53:44;;;;;;;62.55;37.67;;;;;;;0.32;97.27;99214.14;1679609;84;21515;-88
2022/11/24 09:56:24;;;;;;;58.95;34.65;;;;;;;0.33;97.08;99214.55;1668332;83;20950;-81
2022/11/24 09:59:02;;;;;;;64.22;38.23;;;;;;;0.36;97.03;99211.48;1628406;86;21614;-81
2022/11/24 10:01:38;;;;;;;64.35;35.60;;;;;;;0.38;97.02;99205.06;1615963;87;22456;-84
2022/11/24 10:04:25;;;;;;;84.67;59.40;;;;;;;0.40;97.06;99205.89;1613061;87;21302;-82
2022/11/24 10:07:12;;;;;;;69.62;43.98;;;;;;;0.47;97.14;99205.36;1617022;86;21056;-83
2022/11/24 10:10:16;;;;;;;68.28;39.13;;;;;;;0.44;96.96;99208.81;1616377;87;21111;-87
2022/11/24 10:13:08;;;;;;;59.65;35.58;;;;;;;0.39;96.81;99204.17;1607697;87;21061;-79
2022/11/24 10:15:49;;;;;;;65.22;38.53;;;;;;;0.19;96.46;99215.57;1623513;87;21271;-80
2022/11/24 10:18:24;;;;;;;60.98;34.45;;;;;;;0.05;96.37;99221.33;1610806;86;21101;-81
2022/11/24 10:21:15;;;;;;;63.58;36.30;;;;;;;-0.08;96.55;99224.94;1644768;84;21012;-82
2022/11/24 10:24:02;;;;;;;60.88;33.75;;;;;;;-0.20;96.64;99226.34;1671601;84;21358;-83
2022/11/24 10:26:42;;;;;;;55.83;33.70;;;;;;;-0.27;96.74;99223.86;1694083;84;21545;-84
2022/11/24 10:29:35;;;;;;;56.23;33.35;;;;;;;-0.21;97.22;99225.94;1708949;83;21983;-90
2022/11/24 10:32:25;;;;;;;57.50;36.38;;;;;;;-0.15;97.30;99237.41;1712576;82;21137;-91
2022/11/24 10:34:55;;;;;;;58.00;35.17;;;;;;;-0.07;97.64;99230.47;1685609;82;21269;-91
2022/11/24 10:37:27;;;;;;;63.75;37.30;;;;;;;0.07;97.66;99231.14;1654425;85;21531;-87
2022/11/24 10:40:26;;;;;;;99.28;62.58;;;;;;;0.16;97.55;99233.59;1650794;85;21716;-87
2022/11/24 10:42:53;;;;;;;81.02;45.28;;;;;;;0.24;97.44;99242.92;1665904;85;21609;-82
2022/11/24 10:45:22;;;;;;;64.03;37.88;;;;;;;0.25;97.15;99237.75;1638770;86;21000;-85
2022/11/24 10:47:49;;;;;;;65.32;38.10;;;;;;;0.23;96.78;99241.23;1635580;86;21068;-79
2022/11/24 10:50:23;;;;;;;55.60;31.93;;;;;;;0.15;96.65;99234.47;1653613;85;21063;-78
2022/11/24 10:53:19;;;;;;;59.88;33.70;;;;;;;0.15;96.68;99231.90;1647024;85;21222;-79
2022/11/24 10:55:59;;;;;;;52.45;31.30;;;;;;;0.16;96.77;99233.59;1634662;86;21174;-78
2022/11/24 10:58:36;;;;;;;54.93;32.30;;;;;;;0.28;97.10;99221.45;1653046;85;21035;-75
2022/11/24 11:01:19;;;;;;;54.80;31.80;;;;;;;0.47;97.05;99224.18;1639936;85;20989;-82
2022/11/24 11:03:57;;;;;;;55.08;34.38;;;;;;;0.47;97.05;99224.18;1695381;83;20976;-79
2022/11/24 11:06:27;;;;;;;59.45;33.48;;;;;;;0.50;96.64;99225.42;1704906;81;22290;-78
2022/11/24 11:09:16;;;;;;;55.63;35.28;;;;;;;0.46;96.29;99223.78;1730669;81;21558;-80
2022/11/24 11:11:43;;;;;;;58.65;35.33;;;;;;;0.42;96.41;99222.98;1719038;81;20990;-84
2022/11/24 11:14:11;;;;;;;66.02;38.05;;;;;;;0.50;96.74;99222.85;1730454;81;21067;-80
2022/11/24 11:16:49;;;;;;;68.35;34.90;;;;;;;0.56;96.85;99212.52;1742887;81;21437;-79
2022/11/24 11:19:42;;;;;;;65.67;34.55;;;;;;;0.60;96.64;99219.28;1734498;81;21042;-77
2022/11/24 11:22:26;;;;;;;58.05;33.55;;;;;;;0.55;96.37;99223.64;1739698;81;21663;-78
2022/11/24 11:25:14;;;;;;;59.48;32.17;;;;;;;0.46;95.87;99226.35;1711029;82;21481;-77
2022/11/24 11:27:41;;;;;;;57.48;33.40;;;;;;;0.29;95.73;99233.45;1733953;80;20964;-76
2022/11/24 11:30:25;;;;;;;54.73;33.45;;;;;;;0.14;95.84;99240.48;1733288;82;20967;-77
2022/11/24 11:32:56;;;;;;;58.08;33.98;;;;;;;0.07;96.20;99241.41;1710110;81;21167;-76
2022/11/24 11:35:27;;;;;;;55.00;32.45;;;;;;;0.02;96.28;99243.18;1693103;83;21921;-76
2022/11/24 11:38:05;;;;;;;58.75;35.05;;;;;;;0.05;96.75;99240.58;1692348;83;22062;-75
2022/11/24 11:40:32;;;;;;;55.38;33.28;;;;;;;0.06;96.72;99234.59;1669510;83;20971;-76
2022/11/24 11:43:13;;;;;;;62.50;36.25;;;;;;;0.05;96.66;99232.88;1691422;83;22200;-78
2022/11/24 11:45:45;;;;;;;58.80;33.15;;;;;;;0.03;96.50;99232.06;1682436;83;21014;-75
2022/11/24 11:48:31;;;;;;;67.42;35.38;;;;;;;0.03;96.46;99238.89;1678714;83;21373;-77